createdAt,value
2019-03-09T00:01:34.353Z,100190.47
2019-03-09T00:04:01.509Z,100188.91
2019-03-09T00:06:28.492Z,100180.22
2019-03-09T00:08:55.455Z,100171.57
2019-03-09T00:11:22.452Z,100172.05
2019-03-09T00:13:49.393Z,100167.55
2019-03-09T00:16:16.377Z,100157.62
2019-03-09T00:18:43.602Z,100152.80
2019-03-09T00:21:10.573Z,100145.39
2019-03-09T00:23:53.903Z,100146.83
2019-03-09T00:26:43.383Z,100141.91
2019-03-09T00:29:16.501Z,100129.50
2019-03-09T00:31:50.648Z,100114.67
2019-03-09T00:34:17.591Z,100122.16
2019-03-09T00:36:44.618Z,100105.88
2019-03-09T00:39:11.783Z,100110.12
2019-03-09T00:41:38.807Z,100102.56
2019-03-09T00:44:05.778Z,100092.06
2019-03-09T00:46:32.763Z,100097.49
2019-03-09T00:48:59.712Z,100084.47
2019-03-09T00:51:26.685Z,100081.14
2019-03-09T00:53:53.809Z,100084.40
2019-03-09T00:56:20.787Z,100080.57
2019-03-09T00:58:47.765Z,100075.69
2019-03-09T01:01:14.944Z,100067.37
2019-03-09T01:03:41.891Z,100059.53
2019-03-09T01:06:08.854Z,100047.24
2019-03-09T01:08:35.837Z,100041.66
2019-03-09T01:11:03.037Z,100040.26
2019-03-09T01:13:29.995Z,100024.30
2019-03-09T01:15:56.980Z,100034.02
2019-03-09T01:18:23.933Z,100018.16
2019-03-09T01:20:50.964Z,100010.26
2019-03-09T01:23:17.924Z,100000.42
2019-03-09T01:25:44.914Z,99995.25
2019-03-09T01:28:11.873Z,99989.27
2019-03-09T01:30:38.815Z,99987.66
2019-03-09T01:33:05.813Z,99982.31
2019-03-09T01:35:32.758Z,99961.47
2019-03-09T01:37:59.776Z,99973.19
2019-03-09T01:40:26.748Z,99965.99
2019-03-09T01:42:53.716Z,99945.31
2019-03-09T01:45:20.655Z,99949.47
2019-03-09T01:47:47.642Z,99940.55
2019-03-09T01:50:14.604Z,99930.44
2019-03-09T01:52:41.667Z,99931.43
2019-03-09T01:55:08.677Z,99923.19
2019-03-09T01:57:35.736Z,99924.31
2019-03-09T02:00:04.465Z,99917.21
2019-03-09T02:02:31.435Z,99920.27
2019-03-09T02:04:58.380Z,99926.70
2019-03-09T02:07:25.369Z,99920.03
2019-03-09T02:09:52.451Z,99921.73
2019-03-09T02:12:19.448Z,99921.48
2019-03-09T02:14:46.393Z,99917.66
2019-03-09T02:17:13.389Z,99903.45
2019-03-09T02:19:40.354Z,99896.44
2019-03-09T02:22:07.304Z,99895.64
2019-03-09T02:24:34.279Z,99888.16
2019-03-09T02:27:01.291Z,99881.50
2019-03-09T02:29:28.256Z,99870.73
2019-03-09T02:31:55.272Z,99873.09
2019-03-09T02:34:22.240Z,99866.81
2019-03-09T02:36:49.184Z,99857.73
2019-03-09T02:39:35.851Z,99847.30
2019-03-09T02:42:02.836Z,99851.06
2019-03-09T02:44:29.828Z,99847.98
2019-03-09T02:46:56.805Z,99840.70
2019-03-09T02:49:23.810Z,99832.66
2019-03-09T02:51:50.822Z,99831.84
2019-03-09T02:54:17.823Z,99830.91
2019-03-09T02:56:44.797Z,99833.52
2019-03-09T02:59:11.797Z,99827.01
2019-03-09T03:01:58.368Z,99816.31
2019-03-09T03:04:25.364Z,99818.12
2019-03-09T03:06:52.366Z,99799.70
2019-03-09T03:09:19.391Z,99800.59
2019-03-09T03:11:46.355Z,99795.50
2019-03-09T03:14:13.335Z,99794.97
2019-03-09T03:16:40.270Z,99795.58
2019-03-09T03:19:07.562Z,99794.89
2019-03-09T03:21:34.503Z,99789.66
2019-03-09T03:24:01.566Z,99786.84
2019-03-09T03:26:28.491Z,99790.98
2019-03-09T03:28:55.487Z,99798.87
2019-03-09T03:31:22.463Z,99802.77
2019-03-09T03:33:49.431Z,99799.77
2019-03-09T03:36:16.414Z,99794.73
2019-03-09T03:38:43.424Z,99802.08
2019-03-09T03:41:10.482Z,99799.98
2019-03-09T03:43:37.451Z,99788.97
2019-03-09T03:46:04.435Z,99779.05
2019-03-09T03:48:31.417Z,99785.15
2019-03-09T03:50:58.355Z,99782.25
2019-03-09T03:53:25.319Z,99777.34
2019-03-09T03:55:52.211Z,99771.52
2019-03-09T03:58:19.242Z,99765.20
2019-03-09T04:00:46.212Z,99771.84
2019-03-09T04:03:13.139Z,99768.00
2019-03-09T04:05:40.119Z,99768.17
2019-03-09T04:08:07.040Z,99760.23
2019-03-09T04:10:34.432Z,99765.32
2019-03-09T04:13:01.753Z,99766.23
2019-03-09T04:15:28.705Z,99767.47
2019-03-09T04:17:55.619Z,99763.48
2019-03-09T04:20:22.579Z,99762.09
2019-03-09T04:22:49.502Z,99756.30
2019-03-09T04:25:16.450Z,99755.67
2019-03-09T04:27:43.374Z,99761.95
2019-03-09T04:30:10.451Z,99761.47
2019-03-09T04:32:37.460Z,99773.23
2019-03-09T04:35:04.599Z,99771.95
2019-03-09T04:37:31.492Z,99786.92
2019-03-09T04:39:58.473Z,99787.69
2019-03-09T04:42:25.405Z,99789.70
2019-03-09T04:44:52.357Z,99785.53
2019-03-09T04:47:19.267Z,99799.52
2019-03-09T04:49:46.216Z,99803.13
2019-03-09T04:52:13.113Z,99788.27
2019-03-09T04:54:40.071Z,99792.66
2019-03-09T04:57:06.991Z,99793.66
2019-03-09T04:59:33.969Z,99797.92
2019-03-09T05:02:00.941Z,99803.16
2019-03-09T05:04:48.082Z,99808.95
2019-03-09T05:07:29.822Z,99817.13
2019-03-09T05:10:18.267Z,99824.77
2019-03-09T05:12:46.541Z,99820.50
2019-03-09T05:15:13.523Z,99823.47
2019-03-09T05:17:40.442Z,99817.75
2019-03-09T05:20:07.394Z,99829.55
2019-03-09T05:22:34.308Z,99831.28
2019-03-09T05:25:01.245Z,99851.67
2019-03-09T05:27:28.197Z,99865.48
2019-03-09T05:29:55.202Z,99881.30
2019-03-09T05:32:22.192Z,99884.36
2019-03-09T05:34:49.535Z,99897.02
2019-03-09T05:37:16.496Z,99892.30
2019-03-09T05:39:43.398Z,99902.06
2019-03-09T05:42:10.419Z,99898.85
2019-03-09T05:44:37.316Z,99899.00
2019-03-09T05:47:04.281Z,99905.52
2019-03-09T05:49:31.211Z,99902.23
2019-03-09T05:52:36.116Z,99896.42
2019-03-09T05:55:22.586Z,99895.55
2019-03-09T05:57:49.566Z,99903.36
2019-03-09T06:00:16.794Z,99906.70
2019-03-09T06:02:43.926Z,99905.41
2019-03-09T06:05:56.067Z,99899.77
2019-03-09T06:08:22.976Z,99892.21
2019-03-09T06:10:49.895Z,99894.36
2019-03-09T06:13:16.862Z,99902.32
2019-03-09T06:15:43.775Z,99909.52
2019-03-09T06:18:10.805Z,99922.64
2019-03-09T06:20:37.718Z,99939.71
2019-03-09T06:23:04.663Z,99927.14
2019-03-09T06:25:31.586Z,99919.16
2019-03-09T06:27:58.556Z,99942.63
2019-03-09T06:30:25.466Z,99947.98
2019-03-09T06:33:36.615Z,99946.45
2019-03-09T06:36:45.500Z,99948.75
2019-03-09T06:39:36.860Z,99957.56
2019-03-09T06:42:21.422Z,99966.73
2019-03-09T06:44:48.352Z,99946.83
2019-03-09T06:47:15.318Z,99951.05
2019-03-09T06:49:42.223Z,99962.97
2019-03-09T06:52:09.159Z,99961.22
2019-03-09T06:54:36.079Z,99970.34
2019-03-09T06:57:03.029Z,99970.34
2019-03-09T06:59:29.979Z,99980.73
2019-03-09T07:01:56.941Z,99981.70
2019-03-09T07:04:23.863Z,99992.27
2019-03-09T07:06:50.808Z,100004.47
2019-03-09T07:09:17.759Z,100010.73
2019-03-09T07:11:44.666Z,100013.73
2019-03-09T07:14:48.348Z,100020.83
2019-03-09T07:17:15.294Z,100013.17
2019-03-09T07:19:42.192Z,100020.40
2019-03-09T07:22:09.168Z,100026.66
2019-03-09T07:24:36.101Z,100025.38
2019-03-09T07:27:03.020Z,100019.69
2019-03-09T07:29:30.012Z,100028.22
2019-03-09T07:31:56.993Z,100036.55
2019-03-09T07:34:24.648Z,100034.09
2019-03-09T07:36:51.597Z,100041.91
2019-03-09T07:39:18.540Z,100051.83
2019-03-09T07:41:45.479Z,100038.88
2019-03-09T07:44:12.416Z,100043.92
2019-03-09T07:46:39.358Z,100034.56
2019-03-09T07:49:06.348Z,100038.45
2019-03-09T07:51:33.257Z,100048.19
2019-03-09T07:54:00.223Z,100057.05
2019-03-09T07:56:27.351Z,100056.59
2019-03-09T07:58:54.294Z,100067.05
2019-03-09T08:01:21.245Z,100077.91
2019-03-09T08:03:48.184Z,100075.97
2019-03-09T08:06:15.081Z,100074.14
2019-03-09T08:08:42.029Z,100067.26
2019-03-09T08:11:08.971Z,100064.77
2019-03-09T08:14:02.116Z,100084.25
2019-03-09T08:16:35.889Z,100086.28
2019-03-09T08:18:57.981Z,100084.67
2019-03-09T08:21:24.894Z,100083.40
2019-03-09T08:23:51.877Z,100075.94
2019-03-09T08:26:18.788Z,100079.63
2019-03-09T08:28:45.752Z,100087.31
2019-03-09T08:31:12.711Z,100079.84
2019-03-09T08:33:39.692Z,100077.81
2019-03-09T08:36:06.618Z,100072.50
2019-03-09T08:38:33.847Z,100069.16
2019-03-09T08:41:00.810Z,100071.53
2019-03-09T08:43:27.755Z,100073.92
2019-03-09T08:45:54.667Z,100075.34
2019-03-09T08:48:21.614Z,100072.87
2019-03-09T08:50:48.607Z,100071.36
2019-03-09T08:53:15.533Z,100070.51
2019-03-09T08:55:42.495Z,100075.91
2019-03-09T08:58:09.424Z,100074.17
2019-03-09T09:00:36.405Z,100079.56
2019-03-09T09:03:03.292Z,100089.05
2019-03-09T09:05:30.219Z,100081.36
2019-03-09T09:07:57.154Z,100078.52
2019-03-09T09:10:24.124Z,100089.72
2019-03-09T09:12:51.033Z,100084.49
2019-03-09T09:15:17.980Z,100084.16
2019-03-09T09:17:44.983Z,100087.69
2019-03-09T09:20:14.169Z,100089.91
2019-03-09T09:22:41.169Z,100080.44
2019-03-09T09:25:09.960Z,100086.97
2019-03-09T09:27:37.334Z,100076.39
2019-03-09T09:30:05.726Z,100082.38
2019-03-09T09:32:32.629Z,100074.11
2019-03-09T09:34:59.660Z,100065.15
2019-03-09T09:37:26.547Z,100058.05
2019-03-09T09:39:53.546Z,100051.09
2019-03-09T09:42:20.482Z,100056.07
2019-03-09T09:44:47.448Z,100058.27
2019-03-09T09:47:14.348Z,100049.92
2019-03-09T09:49:41.295Z,100057.37
2019-03-09T09:52:08.208Z,100045.08
2019-03-09T09:54:35.152Z,100049.08
2019-03-09T09:57:02.080Z,100046.80
2019-03-09T09:59:29.017Z,100048.11
2019-03-09T10:01:55.931Z,100035.24
2019-03-09T10:04:22.899Z,100052.27
2019-03-09T10:06:49.819Z,100065.45
2019-03-09T10:09:16.728Z,100038.27
2019-03-09T10:11:43.658Z,100060.48
2019-03-09T10:14:10.578Z,100069.66
2019-03-09T10:16:37.538Z,100061.64
2019-03-09T10:19:04.469Z,100051.52
2019-03-09T10:21:31.466Z,100044.52
2019-03-09T10:23:58.386Z,100070.91
2019-03-09T10:26:26.721Z,100048.67
2019-03-09T10:28:54.001Z,100051.56
2019-03-09T10:31:20.964Z,100058.27
2019-03-09T10:33:47.894Z,100050.53
2019-03-09T10:36:14.833Z,100046.11
2019-03-09T10:38:41.778Z,100038.09
2019-03-09T10:41:08.792Z,100037.22
2019-03-09T10:43:35.715Z,100039.91
2019-03-09T10:46:02.657Z,100038.06
2019-03-09T10:48:29.978Z,100015.94
2019-03-09T10:50:56.919Z,100027.52
2019-03-09T10:53:23.849Z,100029.44
2019-03-09T10:55:50.888Z,100019.48
2019-03-09T10:58:17.996Z,100037.00
2019-03-09T11:00:46.496Z,100029.14
2019-03-09T11:03:13.424Z,100031.30
2019-03-09T11:05:40.355Z,100033.45
2019-03-09T11:08:07.524Z,100035.48
2019-03-09T11:10:34.672Z,100034.91
2019-03-09T11:13:01.886Z,100030.34
2019-03-09T11:15:29.176Z,100031.45
2019-03-09T11:17:56.125Z,100031.80
2019-03-09T11:20:23.147Z,100020.26
2019-03-09T11:22:50.148Z,100010.19
2019-03-09T11:25:17.110Z,100030.08
2019-03-09T11:27:44.086Z,100020.66
2019-03-09T11:30:13.987Z,100024.05
2019-03-09T11:32:41.368Z,100033.58
2019-03-09T11:35:08.285Z,100013.92
2019-03-09T11:37:35.500Z,99999.55
2019-03-09T11:40:02.569Z,99991.20
2019-03-09T11:42:29.834Z,99985.14
2019-03-09T11:44:56.769Z,99980.68
2019-03-09T11:47:23.722Z,99990.94
2019-03-09T11:49:50.635Z,99980.77
2019-03-09T11:52:20.543Z,99984.27
2019-03-09T11:54:46.399Z,99984.88
2019-03-09T11:57:16.254Z,99982.72
2019-03-09T11:59:43.187Z,99975.97
2019-03-09T12:02:11.561Z,99967.85
2019-03-09T12:04:46.330Z,99960.64
2019-03-09T12:07:07.500Z,99953.88
2019-03-09T12:09:34.441Z,99965.09
2019-03-09T12:12:04.064Z,99977.76
2019-03-09T12:14:31.381Z,99982.64
2019-03-09T12:16:58.382Z,99980.92
2019-03-09T12:19:25.435Z,99974.80
2019-03-09T12:21:52.442Z,99949.48
2019-03-09T12:24:20.042Z,99956.00
2019-03-09T12:26:49.177Z,99943.72
2019-03-09T12:29:16.374Z,99948.34
2019-03-09T12:31:44.516Z,99929.86
2019-03-09T12:34:11.456Z,99928.12
2019-03-09T12:36:38.420Z,99939.31
2019-03-09T12:39:07.047Z,99914.76
2019-03-09T12:41:34.033Z,99919.59
2019-03-09T12:44:01.032Z,99913.59
2019-03-09T12:46:27.963Z,99908.95
2019-03-09T12:48:54.923Z,99907.27
2019-03-09T12:51:21.842Z,99903.09
2019-03-09T12:53:48.852Z,99903.00
2019-03-09T12:56:16.272Z,99905.52
2019-03-09T12:58:43.328Z,99889.27
2019-03-09T13:01:10.254Z,99878.41
2019-03-09T13:03:37.254Z,99869.58
2019-03-09T13:06:04.167Z,99880.69
2019-03-09T13:08:31.117Z,99869.41
2019-03-09T13:10:58.033Z,99861.34
2019-03-09T13:13:24.975Z,99844.02
2019-03-09T13:15:51.884Z,99835.72
2019-03-09T13:18:18.830Z,99836.52
2019-03-09T13:20:45.737Z,99840.31
2019-03-09T13:23:13.312Z,99840.17
2019-03-09T13:25:40.233Z,99820.73
2019-03-09T13:28:07.195Z,99813.90
2019-03-09T13:30:34.106Z,99808.80
2019-03-09T13:33:01.048Z,99795.73
2019-03-09T13:35:28.022Z,99783.31
2019-03-09T13:37:55.028Z,99764.19
2019-03-09T13:40:21.963Z,99766.11
2019-03-09T13:42:48.903Z,99744.14
2019-03-09T13:45:15.896Z,99736.80
2019-03-09T13:47:42.802Z,99715.84
2019-03-09T13:50:09.904Z,99706.28
2019-03-09T13:52:37.037Z,99701.00
2019-03-09T13:55:04.624Z,99677.89
2019-03-09T13:57:31.537Z,99669.65
2019-03-09T13:59:58.650Z,99668.89
2019-03-09T14:02:25.546Z,99654.09
2019-03-09T14:04:52.733Z,99649.58
2019-03-09T14:07:19.687Z,99644.16
2019-03-09T14:09:46.643Z,99633.02
2019-03-09T14:12:13.605Z,99613.41
2019-03-09T14:14:40.577Z,99657.31
2019-03-09T14:17:07.511Z,99672.52
2019-03-09T14:19:34.470Z,99667.27
2019-03-09T14:22:01.400Z,99683.61
2019-03-09T14:24:28.372Z,99681.59
2019-03-09T14:26:55.307Z,99703.22
2019-03-09T14:29:22.268Z,99705.06
2019-03-09T14:31:49.285Z,99726.73
2019-03-09T14:34:16.260Z,99714.45
2019-03-09T14:36:43.171Z,99674.13
2019-03-09T14:39:10.212Z,99672.07
2019-03-09T14:41:37.174Z,99664.47
2019-03-09T14:44:04.406Z,99673.33
2019-03-09T14:46:31.426Z,99667.86
2019-03-09T14:48:58.322Z,99650.27
2019-03-09T14:51:25.226Z,99652.88
2019-03-09T14:53:52.141Z,99653.51
2019-03-09T14:56:19.080Z,99650.50
2019-03-09T14:58:45.992Z,99642.80
2019-03-09T15:01:12.963Z,99630.42
2019-03-09T15:03:39.909Z,99627.42
2019-03-09T15:06:06.885Z,99619.58
2019-03-09T15:08:33.778Z,99617.47
2019-03-09T15:11:01.034Z,99618.56
2019-03-09T15:13:27.946Z,99618.06
2019-03-09T15:15:55.381Z,99603.77
2019-03-09T15:18:22.930Z,99607.14
2019-03-09T15:20:50.374Z,99610.42
2019-03-09T15:23:17.261Z,99598.33
2019-03-09T15:25:44.212Z,99601.06
2019-03-09T15:28:11.160Z,99595.00
2019-03-09T15:30:38.102Z,99607.80
2019-03-09T15:33:05.014Z,99586.47
2019-03-09T15:35:31.951Z,99604.09
2019-03-09T15:37:58.865Z,99610.86
2019-03-09T15:40:26.400Z,99623.73
2019-03-09T15:42:53.305Z,99659.55
2019-03-09T15:45:21.098Z,99672.16
2019-03-09T15:47:48.046Z,99696.32
2019-03-09T15:50:15.097Z,99712.72
2019-03-09T15:52:42.056Z,99727.58
2019-03-09T15:55:09.019Z,99754.85
2019-03-09T15:57:36.063Z,99727.08
2019-03-09T16:00:04.964Z,99742.24
2019-03-09T16:02:32.764Z,99778.98
2019-03-09T16:04:59.697Z,99788.70
2019-03-09T16:07:28.902Z,99769.56
2019-03-09T16:09:55.963Z,99797.92
2019-03-09T16:12:23.250Z,99795.87
2019-03-09T16:14:50.481Z,99816.11
2019-03-09T16:17:17.446Z,99815.26
2019-03-09T16:19:44.433Z,99818.91
2019-03-09T16:22:11.380Z,99801.13
2019-03-09T16:24:38.312Z,99797.64
2019-03-09T16:27:08.482Z,99767.99
2019-03-09T16:29:35.388Z,99790.41
2019-03-09T16:32:02.461Z,99791.70
2019-03-09T16:34:29.469Z,99794.69
2019-03-09T16:36:56.432Z,99779.22
2019-03-09T16:39:23.376Z,99793.77
2019-03-09T16:41:50.389Z,99802.69
2019-03-09T16:44:17.555Z,99815.94
2019-03-09T16:46:44.518Z,99817.25
2019-03-09T16:49:11.563Z,99832.05
2019-03-09T16:51:38.610Z,99855.33
2019-03-09T16:54:05.542Z,99861.05
2019-03-09T16:56:32.526Z,99881.39
2019-03-09T16:58:59.551Z,99900.47
2019-03-09T17:01:26.540Z,99910.44
2019-03-09T17:03:53.448Z,99921.02
2019-03-09T17:06:20.412Z,99930.16
2019-03-09T17:08:47.339Z,99951.73
2019-03-09T17:11:14.307Z,99945.42
2019-03-09T17:13:41.294Z,99959.05
2019-03-09T17:16:08.275Z,99963.06
2019-03-09T17:18:35.270Z,99952.57
2019-03-09T17:21:02.234Z,99964.92
2019-03-09T17:23:29.152Z,99965.19
2019-03-09T17:25:56.204Z,99975.84
2019-03-09T17:28:23.146Z,99976.25
2019-03-09T17:30:50.108Z,99980.44
2019-03-09T17:33:17.583Z,99994.30
2019-03-09T17:35:44.533Z,100009.30
2019-03-09T17:38:11.935Z,100037.35
2019-03-09T17:40:38.857Z,100025.71
2019-03-09T17:43:05.948Z,100049.97
2019-03-09T17:45:32.982Z,100065.84
2019-03-09T17:48:00.130Z,100092.94
2019-03-09T17:50:27.211Z,100085.45
2019-03-09T17:52:54.196Z,100096.77
2019-03-09T17:55:21.090Z,100103.73
2019-03-09T17:57:48.065Z,100125.67
2019-03-09T18:00:17.365Z,100140.06
2019-03-09T18:02:44.372Z,100140.52
2019-03-09T18:05:11.305Z,100154.07
2019-03-09T18:07:38.265Z,100174.81
2019-03-09T18:10:09.174Z,100135.57
2019-03-09T18:12:36.173Z,100198.05
2019-03-09T18:15:03.767Z,100208.47
2019-03-09T18:17:30.819Z,100231.22
2019-03-09T18:19:57.743Z,100236.33
2019-03-09T18:22:24.708Z,100238.08
2019-03-09T18:24:51.641Z,100236.72
2019-03-09T18:27:18.722Z,100257.20
2019-03-09T18:29:45.648Z,100259.70
2019-03-09T18:32:12.586Z,100266.27
2019-03-09T18:34:39.574Z,100274.08
2019-03-09T18:37:06.786Z,100279.91
2019-03-09T18:39:33.703Z,100285.17
2019-03-09T18:42:00.769Z,100299.44
2019-03-09T18:44:27.751Z,100307.87
2019-03-09T18:46:54.770Z,100310.02
2019-03-09T18:49:21.713Z,100317.92
2019-03-09T18:51:48.652Z,100329.59
2019-03-09T18:54:15.583Z,100351.02
2019-03-09T18:56:42.517Z,100338.11
2019-03-09T18:59:09.471Z,100359.38
2019-03-09T19:01:36.433Z,100358.78
2019-03-09T19:04:03.369Z,100358.13
2019-03-09T19:06:30.303Z,100370.19
2019-03-09T19:08:57.216Z,100368.53
2019-03-09T19:11:24.185Z,100364.82
2019-03-09T19:13:51.150Z,100371.27
2019-03-09T19:16:18.094Z,100380.06
2019-03-09T19:18:45.032Z,100383.97
2019-03-09T19:21:13.580Z,100381.31
2019-03-09T19:23:40.876Z,100388.27
2019-03-09T19:26:07.810Z,100393.42
2019-03-09T19:28:34.790Z,100400.95
2019-03-09T19:31:01.779Z,100404.66
2019-03-09T19:33:28.758Z,100400.38
2019-03-09T19:35:55.692Z,100390.10
2019-03-09T19:38:22.646Z,100396.24
2019-03-09T19:40:49.590Z,100406.23
2019-03-09T19:43:16.573Z,100412.20
2019-03-09T19:45:43.541Z,100427.59
2019-03-09T19:48:10.591Z,100434.05
2019-03-09T19:50:37.543Z,100440.64
2019-03-09T19:53:04.529Z,100442.80
2019-03-09T19:55:31.429Z,100432.39
2019-03-09T19:57:58.416Z,100429.47
2019-03-09T20:00:25.380Z,100437.86
2019-03-09T20:02:52.339Z,100435.64
2019-03-09T20:05:19.302Z,100440.20
2019-03-09T20:07:46.266Z,100423.02
2019-03-09T20:10:13.481Z,100434.34
2019-03-09T20:12:40.405Z,100429.58
2019-03-09T20:15:08.755Z,100435.56
2019-03-09T20:17:35.687Z,100436.81
2019-03-09T20:20:02.775Z,100443.47
2019-03-09T20:22:30.159Z,100413.14
2019-03-09T20:24:57.161Z,100457.56
2019-03-09T20:27:24.083Z,100463.20
2019-03-09T20:29:51.031Z,100464.30
2019-03-09T20:32:17.962Z,100463.14
2019-03-09T20:34:45.332Z,100468.40
2019-03-09T20:37:12.310Z,100470.05
2019-03-09T20:39:39.264Z,100474.97
2019-03-09T20:42:06.268Z,100471.51
2019-03-09T20:44:33.241Z,100460.71
2019-03-09T20:47:00.188Z,100465.39
2019-03-09T20:49:27.179Z,100464.47
2019-03-09T20:51:54.138Z,100469.29
2019-03-09T20:54:21.107Z,100474.59
2019-03-09T20:56:49.140Z,100467.10
2019-03-09T20:59:16.100Z,100470.14
2019-03-09T21:01:43.143Z,100467.30
2019-03-09T21:04:10.148Z,100466.25
2019-03-09T21:06:37.106Z,100462.42
2019-03-09T21:09:05.493Z,100464.70
2019-03-09T21:11:32.420Z,100464.20
2019-03-09T21:13:59.410Z,100467.23
2019-03-09T21:16:26.333Z,100471.95
2019-03-09T21:18:53.396Z,100474.11
2019-03-09T21:21:20.407Z,100471.78
2019-03-09T21:23:47.470Z,100470.11
2019-03-09T21:26:14.560Z,100461.39
2019-03-09T21:28:41.563Z,100455.30
2019-03-09T21:31:08.577Z,100465.70
2019-03-09T21:33:35.603Z,100463.09
2019-03-09T21:36:02.621Z,100463.58
2019-03-09T21:38:29.989Z,100435.11
2019-03-09T21:40:56.992Z,100456.94
2019-03-09T21:43:23.978Z,100457.35
2019-03-09T21:45:50.905Z,100459.88
2019-03-09T21:48:17.852Z,100464.03
2019-03-09T21:50:44.875Z,100450.51
2019-03-09T21:53:11.853Z,100463.63
2019-03-09T21:55:38.981Z,100457.05
2019-03-09T21:58:06.099Z,100465.13
2019-03-09T22:00:33.167Z,100465.95
2019-03-09T22:03:00.138Z,100467.66
2019-03-09T22:05:27.112Z,100458.11
2019-03-09T22:07:55.831Z,100462.20
2019-03-09T22:10:23.225Z,100471.38
2019-03-09T22:12:50.160Z,100474.65
2019-03-09T22:15:18.510Z,100489.17
2019-03-09T22:17:45.517Z,100482.19
2019-03-09T22:20:12.500Z,100471.67
2019-03-09T22:22:39.548Z,100459.48
2019-03-09T22:25:07.524Z,100465.09
2019-03-09T22:27:34.779Z,100470.94
2019-03-09T22:30:01.748Z,100467.77
2019-03-09T22:32:28.708Z,100471.78
2019-03-09T22:34:56.553Z,100468.26
2019-03-09T22:37:23.477Z,100461.67
2019-03-09T22:39:50.868Z,100471.55
2019-03-09T22:42:17.812Z,100472.52
2019-03-09T22:44:44.801Z,100470.34
2019-03-09T22:47:12.229Z,100470.70
2019-03-09T22:49:39.545Z,100462.82
2019-03-09T22:52:06.493Z,100471.44
2019-03-09T22:54:33.462Z,100474.48
2019-03-09T22:57:00.373Z,100467.16
2019-03-09T22:59:27.285Z,100470.81
2019-03-09T23:01:54.226Z,100462.03
2019-03-09T23:04:21.134Z,100468.53
2019-03-09T23:06:48.078Z,100474.99
2019-03-09T23:09:15.054Z,100468.70
2019-03-09T23:11:42.064Z,100463.01
2019-03-09T23:14:09.107Z,100453.09
2019-03-09T23:16:36.331Z,100446.33
2019-03-09T23:19:03.282Z,100451.09
2019-03-09T23:21:30.266Z,100447.81
2019-03-09T23:23:57.223Z,100463.68
2019-03-09T23:26:24.223Z,100455.39
2019-03-09T23:28:51.175Z,100457.99
2019-03-09T23:31:18.308Z,100457.99
2019-03-09T23:33:45.211Z,100461.44
2019-03-09T23:36:12.217Z,100462.39
2019-03-09T23:38:39.187Z,100461.35
2019-03-09T23:41:06.184Z,100460.72
2019-03-09T23:43:33.129Z,100452.02
2019-03-09T23:46:00.086Z,100450.23
2019-03-09T23:48:26.977Z,100448.08
2019-03-09T23:50:53.969Z,100450.14
2019-03-09T23:53:21.148Z,100457.59
2019-03-09T23:55:48.103Z,100454.50
2019-03-09T23:58:15.029Z,100456.64
